sensor_id;sensor_type;location;lat;lon;timestamp;P1;durP1;ratioP1;P2;durP2;ratioP2
45043;SDS011;30784;48.490;9.688;2022-08-02T00:02:10;3.78;;;1.33;;
45043;SDS011;30784;48.490;9.688;2022-08-02T00:04:35;4.43;;;1.50;;
45043;SDS011;30784;48.490;9.688;2022-08-02T00:07:01;4.55;;;1.50;;
45043;SDS011;30784;48.490;9.688;2022-08-02T00:09:27;5.40;;;1.50;;
45043;SDS011;30784;48.490;9.688;2022-08-02T00:11:53;3.88;;;1.40;;
45043;SDS011;30784;48.490;9.688;2022-08-02T00:14:19;4.18;;;1.50;;
45043;SDS011;30784;48.490;9.688;2022-08-02T00:16:45;5.72;;;2.30;;
45043;SDS011;30784;48.490;9.688;2022-08-02T00:19:10;4.38;;;1.80;;
45043;SDS011;30784;48.490;9.688;2022-08-02T00:21:37;4.45;;;1.88;;
45043;SDS011;30784;48.490;9.688;2022-08-02T00:24:03;4.63;;;1.73;;
45043;SDS011;30784;48.490;9.688;2022-08-02T00:26:29;4.78;;;1.65;;
45043;SDS011;30784;48.490;9.688;2022-08-02T00:28:55;5.65;;;1.80;;
45043;SDS011;30784;48.490;9.688;2022-08-02T00:31:20;5.38;;;1.92;;
45043;SDS011;30784;48.490;9.688;2022-08-02T00:33:46;4.32;;;1.52;;
45043;SDS011;30784;48.490;9.688;2022-08-02T00:36:12;4.28;;;1.67;;
45043;SDS011;30784;48.490;9.688;2022-08-02T00:38:37;5.10;;;1.65;;
45043;SDS011;30784;48.490;9.688;2022-08-02T00:41:03;5.28;;;1.67;;
45043;SDS011;30784;48.490;9.688;2022-08-02T00:43:40;3.85;;;1.55;;
45043;SDS011;30784;48.490;9.688;2022-08-02T00:46:06;4.43;;;1.80;;
45043;SDS011;30784;48.490;9.688;2022-08-02T00:48:32;4.97;;;1.80;;
45043;SDS011;30784;48.490;9.688;2022-08-02T00:50:57;6.10;;;1.90;;
45043;SDS011;30784;48.490;9.688;2022-08-02T00:53:23;4.80;;;1.90;;
45043;SDS011;30784;48.490;9.688;2022-08-02T00:55:48;4.43;;;1.73;;
45043;SDS011;30784;48.490;9.688;2022-08-02T00:58:14;3.67;;;1.55;;
45043;SDS011;30784;48.490;9.688;2022-08-02T01:00:40;4.60;;;1.88;;
45043;SDS011;30784;48.490;9.688;2022-08-02T01:03:06;4.60;;;1.65;;
45043;SDS011;30784;48.490;9.688;2022-08-02T01:05:31;5.13;;;1.88;;
45043;SDS011;30784;48.490;9.688;2022-08-02T01:07:57;4.93;;;1.83;;
45043;SDS011;30784;48.490;9.688;2022-08-02T01:10:23;5.22;;;1.90;;
45043;SDS011;30784;48.490;9.688;2022-08-02T01:12:48;4.82;;;2.10;;
45043;SDS011;30784;48.490;9.688;2022-08-02T01:15:14;6.13;;;2.00;;
45043;SDS011;30784;48.490;9.688;2022-08-02T01:31:22;5.97;;;2.63;;
45043;SDS011;30784;48.490;9.688;2022-08-02T01:33:54;5.95;;;2.80;;
45043;SDS011;30784;48.490;9.688;2022-08-02T01:36:31;6.57;;;2.65;;
45043;SDS011;30784;48.490;9.688;2022-08-02T01:39:02;6.28;;;2.65;;
45043;SDS011;30784;48.490;9.688;2022-08-02T01:41:29;5.90;;;2.53;;
45043;SDS011;30784;48.490;9.688;2022-08-02T01:43:57;7.50;;;2.33;;
45043;SDS011;30784;48.490;9.688;2022-08-02T01:46:26;5.97;;;2.83;;
45043;SDS011;30784;48.490;9.688;2022-08-02T01:48:54;7.85;;;3.03;;
45043;SDS011;30784;48.490;9.688;2022-08-02T01:51:21;6.47;;;2.88;;
45043;SDS011;30784;48.490;9.688;2022-08-02T01:54:09;6.88;;;2.90;;
45043;SDS011;30784;48.490;9.688;2022-08-02T01:56:37;6.70;;;3.33;;
45043;SDS011;30784;48.490;9.688;2022-08-02T01:59:05;7.45;;;3.28;;
45043;SDS011;30784;48.490;9.688;2022-08-02T02:01:36;7.20;;;3.25;;
45043;SDS011;30784;48.490;9.688;2022-08-02T02:04:03;6.30;;;2.85;;
45043;SDS011;30784;48.490;9.688;2022-08-02T02:06:30;7.57;;;3.00;;
45043;SDS011;30784;48.490;9.688;2022-08-02T02:08:57;7.65;;;3.30;;
45043;SDS011;30784;48.490;9.688;2022-08-02T02:11:24;6.93;;;3.15;;
45043;SDS011;30784;48.490;9.688;2022-08-02T02:13:50;7.20;;;3.20;;
45043;SDS011;30784;48.490;9.688;2022-08-02T02:16:18;9.27;;;3.05;;
45043;SDS011;30784;48.490;9.688;2022-08-02T02:18:45;6.15;;;2.75;;
45043;SDS011;30784;48.490;9.688;2022-08-02T02:21:13;6.65;;;3.10;;
45043;SDS011;30784;48.490;9.688;2022-08-02T02:23:39;6.75;;;2.95;;
45043;SDS011;30784;48.490;9.688;2022-08-02T02:26:05;8.85;;;3.60;;
45043;SDS011;30784;48.490;9.688;2022-08-02T02:28:34;6.15;;;2.90;;
45043;SDS011;30784;48.490;9.688;2022-08-02T02:31:03;7.78;;;3.10;;
45043;SDS011;30784;48.490;9.688;2022-08-02T02:33:31;8.85;;;3.15;;
45043;SDS011;30784;48.490;9.688;2022-08-02T02:36:01;5.65;;;2.58;;
45043;SDS011;30784;48.490;9.688;2022-08-02T02:38:29;6.97;;;3.08;;
45043;SDS011;30784;48.490;9.688;2022-08-02T02:40:56;7.05;;;2.80;;
45043;SDS011;30784;48.490;9.688;2022-08-02T02:43:26;5.85;;;2.70;;
45043;SDS011;30784;48.490;9.688;2022-08-02T02:45:54;6.03;;;2.58;;
45043;SDS011;30784;48.490;9.688;2022-08-02T02:48:21;6.93;;;3.47;;
45043;SDS011;30784;48.490;9.688;2022-08-02T02:50:47;7.10;;;3.28;;
45043;SDS011;30784;48.490;9.688;2022-08-02T02:53:15;6.78;;;3.00;;
45043;SDS011;30784;48.490;9.688;2022-08-02T02:55:42;7.25;;;2.95;;
45043;SDS011;30784;48.490;9.688;2022-08-02T02:58:09;7.13;;;2.78;;
45043;SDS011;30784;48.490;9.688;2022-08-02T03:00:35;5.20;;;2.35;;
45043;SDS011;30784;48.490;9.688;2022-08-02T03:03:20;6.45;;;3.05;;
45043;SDS011;30784;48.490;9.688;2022-08-02T03:05:46;6.57;;;3.00;;
45043;SDS011;30784;48.490;9.688;2022-08-02T03:08:12;5.93;;;2.83;;
45043;SDS011;30784;48.490;9.688;2022-08-02T03:10:38;6.55;;;2.50;;
45043;SDS011;30784;48.490;9.688;2022-08-02T03:13:04;6.47;;;2.83;;
45043;SDS011;30784;48.490;9.688;2022-08-02T03:15:30;5.60;;;2.53;;
45043;SDS011;30784;48.490;9.688;2022-08-02T03:17:56;6.10;;;2.40;;
45043;SDS011;30784;48.490;9.688;2022-08-02T03:20:22;5.57;;;2.30;;
45043;SDS011;30784;48.490;9.688;2022-08-02T03:22:48;6.15;;;2.22;;
45043;SDS011;30784;48.490;9.688;2022-08-02T03:25:15;5.45;;;2.10;;
45043;SDS011;30784;48.490;9.688;2022-08-02T03:27:41;6.57;;;2.70;;
45043;SDS011;30784;48.490;9.688;2022-08-02T03:30:08;6.35;;;2.30;;
45043;SDS011;30784;48.490;9.688;2022-08-02T03:32:36;5.70;;;2.42;;
45043;SDS011;30784;48.490;9.688;2022-08-02T03:35:03;9.38;;;2.50;;
45043;SDS011;30784;48.490;9.688;2022-08-02T03:37:30;5.20;;;2.10;;
45043;SDS011;30784;48.490;9.688;2022-08-02T03:39:58;5.30;;;2.28;;
45043;SDS011;30784;48.490;9.688;2022-08-02T03:42:25;5.80;;;1.95;;
45043;SDS011;30784;48.490;9.688;2022-08-02T03:44:52;4.88;;;2.05;;
45043;SDS011;30784;48.490;9.688;2022-08-02T03:47:19;5.20;;;1.90;;
45043;SDS011;30784;48.490;9.688;2022-08-02T03:49:45;5.32;;;1.88;;
45043;SDS011;30784;48.490;9.688;2022-08-02T03:52:11;4.22;;;1.77;;
45043;SDS011;30784;48.490;9.688;2022-08-02T03:54:38;5.68;;;1.50;;
45043;SDS011;30784;48.490;9.688;2022-08-02T03:57:04;4.28;;;1.50;;
45043;SDS011;30784;48.490;9.688;2022-08-02T03:59:40;4.40;;;1.53;;
45043;SDS011;30784;48.490;9.688;2022-08-02T04:02:06;4.40;;;1.58;;
45043;SDS011;30784;48.490;9.688;2022-08-02T04:04:32;5.07;;;1.40;;
45043;SDS011;30784;48.490;9.688;2022-08-02T04:06:58;4.65;;;1.70;;
45043;SDS011;30784;48.490;9.688;2022-08-02T04:09:23;4.15;;;1.52;;
45043;SDS011;30784;48.490;9.688;2022-08-02T04:11:49;4.07;;;1.58;;
45043;SDS011;30784;48.490;9.688;2022-08-02T04:14:15;5.18;;;1.63;;
45043;SDS011;30784;48.490;9.688;2022-08-02T04:16:41;4.47;;;1.60;;
45043;SDS011;30784;48.490;9.688;2022-08-02T04:19:09;4.82;;;1.70;;
45043;SDS011;30784;48.490;9.688;2022-08-02T04:21:40;4.50;;;1.63;;
45043;SDS011;30784;48.490;9.688;2022-08-02T04:24:07;3.88;;;1.50;;
45043;SDS011;30784;48.490;9.688;2022-08-02T04:26:35;4.50;;;1.60;;
45043;SDS011;30784;48.490;9.688;2022-08-02T04:29:02;4.65;;;1.70;;
45043;SDS011;30784;48.490;9.688;2022-08-02T04:31:29;4.82;;;1.73;;
45043;SDS011;30784;48.490;9.688;2022-08-02T04:33:56;4.95;;;1.75;;
45043;SDS011;30784;48.490;9.688;2022-08-02T04:36:22;5.97;;;1.85;;
45043;SDS011;30784;48.490;9.688;2022-08-02T04:38:48;4.45;;;1.60;;
45043;SDS011;30784;48.490;9.688;2022-08-02T04:41:14;4.85;;;1.30;;
45043;SDS011;30784;48.490;9.688;2022-08-02T04:43:40;3.35;;;1.10;;
45043;SDS011;30784;48.490;9.688;2022-08-02T04:46:05;4.63;;;1.50;;
45043;SDS011;30784;48.490;9.688;2022-08-02T04:48:31;3.88;;;1.20;;
45043;SDS011;30784;48.490;9.688;2022-08-02T04:50:57;3.83;;;1.23;;
45043;SDS011;30784;48.490;9.688;2022-08-02T04:53:23;2.75;;;1.05;;
45043;SDS011;30784;48.490;9.688;2022-08-02T04:55:49;3.75;;;1.33;;
45043;SDS011;30784;48.490;9.688;2022-08-02T04:58:14;3.38;;;1.30;;
45043;SDS011;30784;48.490;9.688;2022-08-02T05:00:40;3.70;;;1.30;;
45043;SDS011;30784;48.490;9.688;2022-08-02T05:03:06;2.45;;;1.10;;
45043;SDS011;30784;48.490;9.688;2022-08-02T05:05:32;3.88;;;1.35;;
45043;SDS011;30784;48.490;9.688;2022-08-02T05:07:58;3.90;;;1.20;;
45043;SDS011;30784;48.490;9.688;2022-08-02T05:10:23;3.15;;;1.05;;
45043;SDS011;30784;48.490;9.688;2022-08-02T05:12:49;3.35;;;1.30;;
45043;SDS011;30784;48.490;9.688;2022-08-02T05:15:15;4.70;;;1.73;;
45043;SDS011;30784;48.490;9.688;2022-08-02T05:17:42;7.43;;;2.50;;
45043;SDS011;30784;48.490;9.688;2022-08-02T05:20:10;5.80;;;2.28;;
45043;SDS011;30784;48.490;9.688;2022-08-02T05:22:37;4.72;;;1.70;;
45043;SDS011;30784;48.490;9.688;2022-08-02T05:25:04;3.28;;;1.33;;
45043;SDS011;30784;48.490;9.688;2022-08-02T05:27:30;3.70;;;1.20;;
45043;SDS011;30784;48.490;9.688;2022-08-02T05:29:57;3.25;;;1.20;;
45043;SDS011;30784;48.490;9.688;2022-08-02T05:32:23;4.18;;;1.20;;
45043;SDS011;30784;48.490;9.688;2022-08-02T05:34:49;3.25;;;1.20;;
45043;SDS011;30784;48.490;9.688;2022-08-02T05:37:15;3.50;;;1.20;;
45043;SDS011;30784;48.490;9.688;2022-08-02T05:39:41;5.03;;;1.33;;
45043;SDS011;30784;48.490;9.688;2022-08-02T05:42:07;2.95;;;1.08;;
45043;SDS011;30784;48.490;9.688;2022-08-02T05:44:33;3.53;;;1.20;;
45043;SDS011;30784;48.490;9.688;2022-08-02T05:46:58;2.90;;;0.90;;
45043;SDS011;30784;48.490;9.688;2022-08-02T05:49:24;4.40;;;0.95;;
45043;SDS011;30784;48.490;9.688;2022-08-02T05:52:02;2.97;;;0.90;;
45043;SDS011;30784;48.490;9.688;2022-08-02T05:57:25;2.78;;;1.10;;
45043;SDS011;30784;48.490;9.688;2022-08-02T06:00:12;4.82;;;1.05;;
45043;SDS011;30784;48.490;9.688;2022-08-02T06:05:12;3.92;;;1.10;;
45043;SDS011;30784;48.490;9.688;2022-08-02T06:07:41;2.90;;;1.13;;
45043;SDS011;30784;48.490;9.688;2022-08-02T06:10:09;4.13;;;1.58;;
45043;SDS011;30784;48.490;9.688;2022-08-02T06:12:49;3.72;;;1.08;;
45043;SDS011;30784;48.490;9.688;2022-08-02T06:15:42;2.83;;;1.00;;
45043;SDS011;30784;48.490;9.688;2022-08-02T06:18:08;2.95;;;1.02;;
45043;SDS011;30784;48.490;9.688;2022-08-02T06:20:34;3.90;;;1.10;;
45043;SDS011;30784;48.490;9.688;2022-08-02T06:23:04;2.85;;;1.10;;
45043;SDS011;30784;48.490;9.688;2022-08-02T06:25:31;3.15;;;1.08;;
45043;SDS011;30784;48.490;9.688;2022-08-02T06:28:00;2.42;;;1.00;;
45043;SDS011;30784;48.490;9.688;2022-08-02T06:30:27;3.80;;;1.00;;
45043;SDS011;30784;48.490;9.688;2022-08-02T06:32:53;3.50;;;1.02;;
45043;SDS011;30784;48.490;9.688;2022-08-02T06:35:19;6.05;;;2.78;;
45043;SDS011;30784;48.490;9.688;2022-08-02T06:42:50;4.70;;;1.80;;
45043;SDS011;30784;48.490;9.688;2022-08-02T06:45:21;4.85;;;1.63;;
45043;SDS011;30784;48.490;9.688;2022-08-02T06:47:47;5.53;;;1.50;;
45043;SDS011;30784;48.490;9.688;2022-08-02T06:50:13;5.35;;;1.40;;
45043;SDS011;30784;48.490;9.688;2022-08-02T06:52:38;3.83;;;1.20;;
45043;SDS011;30784;48.490;9.688;2022-08-02T06:55:04;2.88;;;1.10;;
45043;SDS011;30784;48.490;9.688;2022-08-02T06:57:31;4.03;;;1.20;;
45043;SDS011;30784;48.490;9.688;2022-08-02T06:59:57;4.15;;;1.30;;
45043;SDS011;30784;48.490;9.688;2022-08-02T07:02:26;5.03;;;1.92;;
45043;SDS011;30784;48.490;9.688;2022-08-02T07:04:53;4.75;;;1.60;;
45043;SDS011;30784;48.490;9.688;2022-08-02T07:07:19;5.05;;;1.30;;
45043;SDS011;30784;48.490;9.688;2022-08-02T07:09:44;4.47;;;1.00;;
45043;SDS011;30784;48.490;9.688;2022-08-02T07:12:10;3.28;;;1.20;;
45043;SDS011;30784;48.490;9.688;2022-08-02T07:14:36;1.75;;;0.90;;
45043;SDS011;30784;48.490;9.688;2022-08-02T07:17:02;3.92;;;0.88;;
45043;SDS011;30784;48.490;9.688;2022-08-02T07:19:27;2.03;;;1.00;;
45043;SDS011;30784;48.490;9.688;2022-08-02T07:21:53;2.35;;;1.08;;
45043;SDS011;30784;48.490;9.688;2022-08-02T07:24:18;2.47;;;1.10;;
45043;SDS011;30784;48.490;9.688;2022-08-02T07:26:44;2.10;;;0.93;;
45043;SDS011;30784;48.490;9.688;2022-08-02T07:29:09;2.72;;;1.00;;
45043;SDS011;30784;48.490;9.688;2022-08-02T07:31:35;3.22;;;1.17;;
45043;SDS011;30784;48.490;9.688;2022-08-02T07:34:01;3.22;;;0.98;;
45043;SDS011;30784;48.490;9.688;2022-08-02T07:36:27;3.42;;;1.10;;
45043;SDS011;30784;48.490;9.688;2022-08-02T07:38:52;2.65;;;0.90;;
45043;SDS011;30784;48.490;9.688;2022-08-02T07:41:18;4.13;;;1.00;;
45043;SDS011;30784;48.490;9.688;2022-08-02T07:43:44;3.17;;;1.15;;
45043;SDS011;30784;48.490;9.688;2022-08-02T07:46:09;3.63;;;1.00;;
45043;SDS011;30784;48.490;9.688;2022-08-02T07:48:35;2.95;;;1.00;;
45043;SDS011;30784;48.490;9.688;2022-08-02T07:51:01;4.30;;;1.23;;
45043;SDS011;30784;48.490;9.688;2022-08-02T07:53:26;6.35;;;1.60;;
45043;SDS011;30784;48.490;9.688;2022-08-02T07:55:52;3.20;;;0.98;;
45043;SDS011;30784;48.490;9.688;2022-08-02T07:58:18;2.60;;;1.10;;
45043;SDS011;30784;48.490;9.688;2022-08-02T08:00:43;3.92;;;1.23;;
45043;SDS011;30784;48.490;9.688;2022-08-02T08:03:09;3.25;;;1.15;;
45043;SDS011;30784;48.490;9.688;2022-08-02T08:05:35;3.33;;;1.10;;
45043;SDS011;30784;48.490;9.688;2022-08-02T08:08:01;4.75;;;1.38;;
45043;SDS011;30784;48.490;9.688;2022-08-02T08:10:27;5.78;;;1.52;;
45043;SDS011;30784;48.490;9.688;2022-08-02T08:12:53;8.75;;;1.73;;
45043;SDS011;30784;48.490;9.688;2022-08-02T08:15:19;5.07;;;1.50;;
45043;SDS011;30784;48.490;9.688;2022-08-02T08:17:45;4.30;;;1.20;;
45043;SDS011;30784;48.490;9.688;2022-08-02T08:20:11;11.73;;;1.85;;
45043;SDS011;30784;48.490;9.688;2022-08-02T08:22:37;8.65;;;1.73;;
45043;SDS011;30784;48.490;9.688;2022-08-02T08:25:03;4.22;;;1.10;;
45043;SDS011;30784;48.490;9.688;2022-08-02T08:27:29;7.53;;;1.48;;
45043;SDS011;30784;48.490;9.688;2022-08-02T08:29:55;3.15;;;1.20;;
45043;SDS011;30784;48.490;9.688;2022-08-02T08:32:21;5.28;;;1.00;;
45043;SDS011;30784;48.490;9.688;2022-08-02T08:34:47;1.75;;;0.80;;
45043;SDS011;30784;48.490;9.688;2022-08-02T08:37:13;2.85;;;0.80;;
45043;SDS011;30784;48.490;9.688;2022-08-02T08:39:39;2.65;;;0.95;;
45043;SDS011;30784;48.490;9.688;2022-08-02T08:42:06;1.58;;;0.80;;
45043;SDS011;30784;48.490;9.688;2022-08-02T08:44:33;2.17;;;0.90;;
45043;SDS011;30784;48.490;9.688;2022-08-02T08:47:00;1.92;;;0.80;;
45043;SDS011;30784;48.490;9.688;2022-08-02T08:49:32;3.40;;;0.80;;
45043;SDS011;30784;48.490;9.688;2022-08-02T08:52:09;1.77;;;0.73;;
45043;SDS011;30784;48.490;9.688;2022-08-02T08:54:35;2.50;;;0.90;;
45043;SDS011;30784;48.490;9.688;2022-08-02T08:57:05;2.63;;;0.82;;
45043;SDS011;30784;48.490;9.688;2022-08-02T08:59:31;2.85;;;1.10;;
45043;SDS011;30784;48.490;9.688;2022-08-02T09:01:57;3.20;;;0.90;;
45043;SDS011;30784;48.490;9.688;2022-08-02T09:04:24;2.05;;;0.82;;
45043;SDS011;30784;48.490;9.688;2022-08-02T09:06:49;4.45;;;1.50;;
45043;SDS011;30784;48.490;9.688;2022-08-02T09:09:15;3.72;;;1.33;;
45043;SDS011;30784;48.490;9.688;2022-08-02T09:11:40;2.40;;;0.85;;
45043;SDS011;30784;48.490;9.688;2022-08-02T09:14:06;2.90;;;0.90;;
45043;SDS011;30784;48.490;9.688;2022-08-02T09:16:36;2.65;;;1.02;;
45043;SDS011;30784;48.490;9.688;2022-08-02T09:19:17;1.88;;;0.90;;
45043;SDS011;30784;48.490;9.688;2022-08-02T09:21:44;2.85;;;0.88;;
45043;SDS011;30784;48.490;9.688;2022-08-02T09:24:19;3.38;;;0.98;;
45043;SDS011;30784;48.490;9.688;2022-08-02T09:26:46;3.35;;;1.05;;
45043;SDS011;30784;48.490;9.688;2022-08-02T09:29:13;2.13;;;1.00;;
45043;SDS011;30784;48.490;9.688;2022-08-02T09:31:39;3.00;;;1.17;;
45043;SDS011;30784;48.490;9.688;2022-08-02T09:34:06;1.70;;;0.80;;
45043;SDS011;30784;48.490;9.688;2022-08-02T09:36:37;3.08;;;1.10;;
45043;SDS011;30784;48.490;9.688;2022-08-02T09:39:07;2.45;;;0.90;;
45043;SDS011;30784;48.490;9.688;2022-08-02T09:41:35;2.92;;;1.10;;
45043;SDS011;30784;48.490;9.688;2022-08-02T09:44:07;1.92;;;0.88;;
45043;SDS011;30784;48.490;9.688;2022-08-02T09:49:14;1.65;;;0.80;;
45043;SDS011;30784;48.490;9.688;2022-08-02T09:54:14;2.30;;;0.80;;
45043;SDS011;30784;48.490;9.688;2022-08-02T09:56:47;2.20;;;0.90;;
45043;SDS011;30784;48.490;9.688;2022-08-02T09:59:18;3.80;;;0.90;;
45043;SDS011;30784;48.490;9.688;2022-08-02T10:01:46;1.75;;;0.90;;
45043;SDS011;30784;48.490;9.688;2022-08-02T10:04:13;3.35;;;1.00;;
45043;SDS011;30784;48.490;9.688;2022-08-02T10:06:39;2.53;;;0.90;;
45043;SDS011;30784;48.490;9.688;2022-08-02T10:09:07;2.70;;;0.90;;
45043;SDS011;30784;48.490;9.688;2022-08-02T10:11:33;2.13;;;0.88;;
45043;SDS011;30784;48.490;9.688;2022-08-02T10:14:03;4.05;;;1.08;;
45043;SDS011;30784;48.490;9.688;2022-08-02T10:16:32;2.65;;;0.90;;
45043;SDS011;30784;48.490;9.688;2022-08-02T10:19:00;2.20;;;0.80;;
45043;SDS011;30784;48.490;9.688;2022-08-02T10:21:29;3.17;;;0.90;;
45043;SDS011;30784;48.490;9.688;2022-08-02T10:24:09;2.28;;;0.82;;
45043;SDS011;30784;48.490;9.688;2022-08-02T10:26:40;2.25;;;0.98;;
45043;SDS011;30784;48.490;9.688;2022-08-02T10:29:07;1.63;;;0.88;;
45043;SDS011;30784;48.490;9.688;2022-08-02T10:31:40;2.17;;;0.90;;
45043;SDS011;30784;48.490;9.688;2022-08-02T10:34:11;1.50;;;0.80;;
45043;SDS011;30784;48.490;9.688;2022-08-02T10:36:40;2.03;;;0.90;;
45043;SDS011;30784;48.490;9.688;2022-08-02T10:39:07;1.77;;;0.80;;
45043;SDS011;30784;48.490;9.688;2022-08-02T10:41:46;2.05;;;0.80;;
45043;SDS011;30784;48.490;9.688;2022-08-02T10:46:46;2.85;;;0.90;;
45043;SDS011;30784;48.490;9.688;2022-08-02T10:49:13;2.20;;;0.80;;
45043;SDS011;30784;48.490;9.688;2022-08-02T10:51:55;2.15;;;0.88;;
45043;SDS011;30784;48.490;9.688;2022-08-02T10:54:22;2.55;;;0.82;;
45043;SDS011;30784;48.490;9.688;2022-08-02T10:56:50;1.88;;;0.70;;
45043;SDS011;30784;48.490;9.688;2022-08-02T11:01:52;2.78;;;0.80;;
45043;SDS011;30784;48.490;9.688;2022-08-02T11:09:41;1.73;;;0.70;;
45043;SDS011;30784;48.490;9.688;2022-08-02T11:12:11;2.45;;;0.90;;
45043;SDS011;30784;48.490;9.688;2022-08-02T11:14:39;2.38;;;0.80;;
45043;SDS011;30784;48.490;9.688;2022-08-02T11:17:07;2.25;;;0.80;;
45043;SDS011;30784;48.490;9.688;2022-08-02T11:19:38;1.92;;;0.70;;
45043;SDS011;30784;48.490;9.688;2022-08-02T11:22:35;1.45;;;0.70;;
45043;SDS011;30784;48.490;9.688;2022-08-02T11:27:45;3.22;;;0.90;;
45043;SDS011;30784;48.490;9.688;2022-08-02T11:30:11;2.90;;;0.90;;
45043;SDS011;30784;48.490;9.688;2022-08-02T11:32:38;2.42;;;0.80;;
45043;SDS011;30784;48.490;9.688;2022-08-02T11:35:04;2.63;;;0.90;;
45043;SDS011;30784;48.490;9.688;2022-08-02T11:37:37;3.47;;;0.90;;
45043;SDS011;30784;48.490;9.688;2022-08-02T11:40:05;1.98;;;0.80;;
45043;SDS011;30784;48.490;9.688;2022-08-02T11:42:42;1.95;;;0.80;;
45043;SDS011;30784;48.490;9.688;2022-08-02T11:45:10;2.40;;;0.90;;
45043;SDS011;30784;48.490;9.688;2022-08-02T11:50:12;1.98;;;0.80;;
45043;SDS011;30784;48.490;9.688;2022-08-02T11:52:37;2.30;;;0.70;;
45043;SDS011;30784;48.490;9.688;2022-08-02T11:55:04;3.28;;;0.60;;
45043;SDS011;30784;48.490;9.688;2022-08-02T11:57:31;2.08;;;0.80;;
45043;SDS011;30784;48.490;9.688;2022-08-02T11:59:57;2.10;;;1.10;;
45043;SDS011;30784;48.490;9.688;2022-08-02T12:02:24;1.00;;;0.77;;
45043;SDS011;30784;48.490;9.688;2022-08-02T12:04:55;2.20;;;0.68;;
45043;SDS011;30784;48.490;9.688;2022-08-02T12:07:29;2.92;;;0.80;;
45043;SDS011;30784;48.490;9.688;2022-08-02T12:09:58;2.10;;;0.70;;
45043;SDS011;30784;48.490;9.688;2022-08-02T12:12:25;1.90;;;0.80;;
45043;SDS011;30784;48.490;9.688;2022-08-02T12:14:51;1.50;;;0.77;;
45043;SDS011;30784;48.490;9.688;2022-08-02T12:17:26;1.45;;;0.75;;
45043;SDS011;30784;48.490;9.688;2022-08-02T12:20:11;2.65;;;0.75;;
45043;SDS011;30784;48.490;9.688;2022-08-02T12:22:37;1.52;;;0.60;;
45043;SDS011;30784;48.490;9.688;2022-08-02T12:25:17;2.97;;;0.80;;
45043;SDS011;30784;48.490;9.688;2022-08-02T12:27:44;1.60;;;0.70;;
45043;SDS011;30784;48.490;9.688;2022-08-02T12:30:14;1.45;;;0.60;;
45043;SDS011;30784;48.490;9.688;2022-08-02T12:32:42;1.75;;;0.77;;
45043;SDS011;30784;48.490;9.688;2022-08-02T12:35:16;3.25;;;0.80;;
45043;SDS011;30784;48.490;9.688;2022-08-02T12:37:45;2.03;;;0.70;;
45043;SDS011;30784;48.490;9.688;2022-08-02T12:42:57;1.85;;;0.75;;
45043;SDS011;30784;48.490;9.688;2022-08-02T12:45:27;1.55;;;0.73;;
45043;SDS011;30784;48.490;9.688;2022-08-02T12:47:55;1.55;;;0.70;;
45043;SDS011;30784;48.490;9.688;2022-08-02T12:50:29;1.65;;;0.70;;
45043;SDS011;30784;48.490;9.688;2022-08-02T12:53:04;2.08;;;0.93;;
45043;SDS011;30784;48.490;9.688;2022-08-02T12:55:52;2.63;;;0.90;;
45043;SDS011;30784;48.490;9.688;2022-08-02T12:58:19;1.23;;;0.65;;
45043;SDS011;30784;48.490;9.688;2022-08-02T13:00:52;2.10;;;0.80;;
45043;SDS011;30784;48.490;9.688;2022-08-02T13:03:19;1.90;;;0.88;;
45043;SDS011;30784;48.490;9.688;2022-08-02T13:05:45;1.33;;;0.70;;
45043;SDS011;30784;48.490;9.688;2022-08-02T13:08:12;2.20;;;0.90;;
45043;SDS011;30784;48.490;9.688;2022-08-02T13:10:38;1.73;;;0.70;;
45043;SDS011;30784;48.490;9.688;2022-08-02T13:13:04;1.80;;;0.80;;
45043;SDS011;30784;48.490;9.688;2022-08-02T13:15:30;1.70;;;0.80;;
45043;SDS011;30784;48.490;9.688;2022-08-02T13:17:56;2.38;;;0.80;;
45043;SDS011;30784;48.490;9.688;2022-08-02T13:20:23;2.17;;;0.73;;
45043;SDS011;30784;48.490;9.688;2022-08-02T13:22:51;1.65;;;0.90;;
45043;SDS011;30784;48.490;9.688;2022-08-02T13:25:18;1.63;;;0.77;;
45043;SDS011;30784;48.490;9.688;2022-08-02T13:27:47;1.77;;;0.90;;
45043;SDS011;30784;48.490;9.688;2022-08-02T13:30:14;1.77;;;0.65;;
45043;SDS011;30784;48.490;9.688;2022-08-02T13:32:40;1.73;;;0.88;;
45043;SDS011;30784;48.490;9.688;2022-08-02T13:35:06;2.83;;;0.80;;
45043;SDS011;30784;48.490;9.688;2022-08-02T13:37:33;1.73;;;0.90;;
45043;SDS011;30784;48.490;9.688;2022-08-02T13:39:59;2.17;;;0.70;;
45043;SDS011;30784;48.490;9.688;2022-08-02T13:42:25;3.20;;;0.90;;
45043;SDS011;30784;48.490;9.688;2022-08-02T13:44:51;3.92;;;1.08;;
45043;SDS011;30784;48.490;9.688;2022-08-02T13:47:17;4.10;;;1.08;;
45043;SDS011;30784;48.490;9.688;2022-08-02T13:49:42;2.10;;;0.95;;
45043;SDS011;30784;48.490;9.688;2022-08-02T13:52:08;2.60;;;0.90;;
45043;SDS011;30784;48.490;9.688;2022-08-02T13:54:34;3.55;;;0.90;;
45043;SDS011;30784;48.490;9.688;2022-08-02T13:56:59;3.05;;;1.00;;
45043;SDS011;30784;48.490;9.688;2022-08-02T13:59:25;5.53;;;1.00;;
45043;SDS011;30784;48.490;9.688;2022-08-02T14:01:53;2.20;;;1.10;;
45043;SDS011;30784;48.490;9.688;2022-08-02T14:04:20;4.00;;;1.13;;
45043;SDS011;30784;48.490;9.688;2022-08-02T14:06:46;3.50;;;1.40;;
45043;SDS011;30784;48.490;9.688;2022-08-02T14:09:12;4.13;;;1.42;;
45043;SDS011;30784;48.490;9.688;2022-08-02T14:11:38;4.10;;;1.30;;
45043;SDS011;30784;48.490;9.688;2022-08-02T14:14:04;2.60;;;1.13;;
45043;SDS011;30784;48.490;9.688;2022-08-02T14:16:29;2.50;;;1.10;;
45043;SDS011;30784;48.490;9.688;2022-08-02T14:18:55;2.50;;;0.93;;
45043;SDS011;30784;48.490;9.688;2022-08-02T14:21:21;3.67;;;1.20;;
45043;SDS011;30784;48.490;9.688;2022-08-02T14:23:47;4.05;;;0.98;;
45043;SDS011;30784;48.490;9.688;2022-08-02T14:26:13;3.03;;;1.02;;
45043;SDS011;30784;48.490;9.688;2022-08-02T14:28:39;3.50;;;1.02;;
45043;SDS011;30784;48.490;9.688;2022-08-02T14:31:04;3.45;;;1.00;;
45043;SDS011;30784;48.490;9.688;2022-08-02T14:33:30;3.20;;;1.20;;
45043;SDS011;30784;48.490;9.688;2022-08-02T14:35:56;3.00;;;1.20;;
45043;SDS011;30784;48.490;9.688;2022-08-02T14:38:22;3.60;;;1.38;;
45043;SDS011;30784;48.490;9.688;2022-08-02T14:40:48;4.35;;;1.17;;
45043;SDS011;30784;48.490;9.688;2022-08-02T14:43:14;3.13;;;1.10;;
45043;SDS011;30784;48.490;9.688;2022-08-02T14:46:00;3.40;;;1.10;;
45043;SDS011;30784;48.490;9.688;2022-08-02T14:48:26;3.63;;;1.10;;
45043;SDS011;30784;48.490;9.688;2022-08-02T14:50:55;3.50;;;1.02;;
45043;SDS011;30784;48.490;9.688;2022-08-02T14:53:21;3.13;;;1.20;;
45043;SDS011;30784;48.490;9.688;2022-08-02T14:55:47;3.53;;;1.40;;
45043;SDS011;30784;48.490;9.688;2022-08-02T14:58:14;2.28;;;0.98;;
45043;SDS011;30784;48.490;9.688;2022-08-02T15:00:39;2.10;;;1.00;;
45043;SDS011;30784;48.490;9.688;2022-08-02T15:03:05;2.83;;;0.93;;
45043;SDS011;30784;48.490;9.688;2022-08-02T15:05:31;2.42;;;1.00;;
45043;SDS011;30784;48.490;9.688;2022-08-02T15:07:57;2.58;;;1.10;;
45043;SDS011;30784;48.490;9.688;2022-08-02T15:10:22;3.33;;;1.13;;
45043;SDS011;30784;48.490;9.688;2022-08-02T15:12:48;2.20;;;1.00;;
45043;SDS011;30784;48.490;9.688;2022-08-02T15:15:14;3.20;;;0.85;;
45043;SDS011;30784;48.490;9.688;2022-08-02T15:17:39;2.88;;;1.08;;
45043;SDS011;30784;48.490;9.688;2022-08-02T15:20:05;1.95;;;1.00;;
45043;SDS011;30784;48.490;9.688;2022-08-02T15:22:31;2.45;;;1.10;;
45043;SDS011;30784;48.490;9.688;2022-08-02T15:24:57;3.58;;;1.00;;
45043;SDS011;30784;48.490;9.688;2022-08-02T15:27:23;2.30;;;0.90;;
45043;SDS011;30784;48.490;9.688;2022-08-02T15:29:49;2.42;;;0.93;;
45043;SDS011;30784;48.490;9.688;2022-08-02T15:32:15;4.05;;;1.10;;
45043;SDS011;30784;48.490;9.688;2022-08-02T15:34:44;2.13;;;1.00;;
45043;SDS011;30784;48.490;9.688;2022-08-02T15:37:11;2.88;;;1.00;;
45043;SDS011;30784;48.490;9.688;2022-08-02T15:39:37;2.72;;;1.10;;